createdAt,value
2019-05-03T00:00:14.581Z,0.00
2019-05-03T00:01:14.513Z,0.00
2019-05-03T00:02:14.483Z,0.00
2019-05-03T00:03:14.477Z,0.00
2019-05-03T00:04:14.457Z,0.00
2019-05-03T00:05:14.445Z,0.00
2019-05-03T00:06:14.458Z,0.00
2019-05-03T00:07:14.422Z,0.00
2019-05-03T00:08:14.413Z,0.00
2019-05-03T00:09:14.399Z,0.00
2019-05-03T00:10:14.392Z,0.00
2019-05-03T00:11:14.376Z,0.00
2019-05-03T00:12:14.385Z,0.00
2019-05-03T00:13:14.354Z,0.00
2019-05-03T00:14:14.343Z,0.00
2019-05-03T00:15:14.334Z,0.00
2019-05-03T00:16:14.322Z,0.00
2019-05-03T00:17:14.326Z,0.00
2019-05-03T00:18:14.296Z,0.00
2019-05-03T00:19:14.286Z,0.00
2019-05-03T00:20:14.273Z,0.00
2019-05-03T00:21:14.263Z,0.00
2019-05-03T00:22:14.268Z,0.00
2019-05-03T00:23:14.237Z,0.00
2019-05-03T00:24:14.224Z,0.00
2019-05-03T00:25:14.213Z,0.00
2019-05-03T00:26:14.203Z,0.00
2019-05-03T00:27:14.213Z,0.00
2019-05-03T00:28:14.180Z,0.00
2019-05-03T00:29:14.168Z,0.00
2019-05-03T00:30:14.154Z,0.00
2019-05-03T00:31:14.147Z,0.00
2019-05-03T00:32:14.133Z,0.00
2019-05-03T00:33:14.140Z,0.00
2019-05-03T00:34:14.112Z,0.00
2019-05-03T00:35:14.103Z,0.00
2019-05-03T00:36:14.087Z,0.00
2019-05-03T00:37:17.286Z,0.00
2019-05-03T00:38:14.082Z,0.00
2019-05-03T00:39:14.050Z,0.00
2019-05-03T00:40:14.042Z,0.00
2019-05-03T00:41:14.029Z,0.00
2019-05-03T00:42:14.037Z,0.00
2019-05-03T00:43:14.006Z,0.00
2019-05-03T00:44:13.996Z,0.00
2019-05-03T00:45:13.983Z,0.00
2019-05-03T00:46:13.970Z,0.00
2019-05-03T00:47:13.979Z,0.00
2019-05-03T00:48:13.950Z,0.00
2019-05-03T00:49:13.935Z,0.00
2019-05-03T00:50:13.924Z,0.00
2019-05-03T00:51:13.913Z,0.00
2019-05-03T00:52:13.920Z,0.00
2019-05-03T00:53:13.889Z,0.00
2019-05-03T00:54:13.880Z,0.00
2019-05-03T00:55:17.123Z,0.00
2019-05-03T00:56:14.864Z,0.00
2019-05-03T00:57:13.862Z,0.00
2019-05-03T00:58:13.831Z,0.00
2019-05-03T00:59:13.819Z,0.00
2019-05-03T01:00:13.813Z,0.00
2019-05-03T01:01:13.806Z,0.00
2019-05-03T01:02:13.809Z,0.00
2019-05-03T01:03:13.772Z,0.00
2019-05-03T01:04:13.764Z,0.00
2019-05-03T01:05:13.752Z,0.00
2019-05-03T01:06:13.740Z,0.00
2019-05-03T01:07:13.727Z,0.00
2019-05-03T01:08:13.734Z,0.00
2019-05-03T01:09:13.707Z,0.00
2019-05-03T01:10:13.694Z,0.00
2019-05-03T01:11:13.692Z,0.00
2019-05-03T01:12:13.670Z,0.00
2019-05-03T01:13:13.682Z,0.00
2019-05-03T01:14:13.650Z,0.00
2019-05-03T01:15:13.634Z,0.00
2019-05-03T01:16:13.622Z,0.00
2019-05-03T01:17:13.611Z,0.00
2019-05-03T01:18:13.598Z,0.00
2019-05-03T01:19:13.608Z,0.00
2019-05-03T01:20:13.576Z,0.00
2019-05-03T01:21:13.565Z,0.00
2019-05-03T01:22:13.552Z,0.00
2019-05-03T01:23:13.545Z,0.00
2019-05-03T01:24:13.550Z,0.00
2019-05-03T01:25:13.518Z,0.00
2019-05-03T01:26:13.508Z,0.00
2019-05-03T01:27:13.497Z,0.00
2019-05-03T01:28:13.481Z,0.00
2019-05-03T01:29:13.490Z,0.00
2019-05-03T01:30:13.458Z,0.00
2019-05-03T01:31:13.447Z,0.00
2019-05-03T01:32:13.436Z,0.00
2019-05-03T01:33:13.425Z,0.00
2019-05-03T01:34:13.430Z,0.00
2019-05-03T01:35:13.402Z,0.00
2019-05-03T01:36:13.390Z,0.00
2019-05-03T01:37:13.382Z,0.00
2019-05-03T01:38:13.365Z,0.00
2019-05-03T01:39:13.373Z,0.00
2019-05-03T01:40:13.344Z,0.00
2019-05-03T01:41:13.332Z,0.00
2019-05-03T01:42:13.320Z,0.00
2019-05-03T01:43:13.308Z,0.00
2019-05-03T01:44:13.315Z,0.00
2019-05-03T01:45:13.285Z,0.00
2019-05-03T01:46:13.273Z,0.00
2019-05-03T01:47:13.275Z,0.00
2019-05-03T01:48:13.250Z,0.00
2019-05-03T01:49:13.256Z,0.00
2019-05-03T01:50:13.228Z,0.00
2019-05-03T01:51:13.213Z,0.00
2019-05-03T01:52:13.201Z,0.00
2019-05-03T01:53:13.192Z,0.00
2019-05-03T01:54:13.181Z,0.00
2019-05-03T01:55:15.838Z,0.00
2019-05-03T01:56:13.157Z,0.00
2019-05-03T01:57:13.145Z,0.00
2019-05-03T01:58:13.132Z,0.00
2019-05-03T01:59:13.119Z,0.00
2019-05-03T02:00:13.129Z,0.00
2019-05-03T02:01:13.098Z,0.00
2019-05-03T02:02:13.087Z,0.00
2019-05-03T02:03:13.076Z,0.00
2019-05-03T02:04:13.062Z,0.00
2019-05-03T02:05:13.072Z,0.00
2019-05-03T02:06:13.048Z,0.00
2019-05-03T02:07:13.029Z,0.00
2019-05-03T02:08:13.014Z,0.00
2019-05-03T02:09:13.005Z,0.00
2019-05-03T02:10:13.010Z,0.00
2019-05-03T02:11:12.982Z,0.00
2019-05-03T02:12:12.971Z,0.00
2019-05-03T02:13:12.957Z,0.00
2019-05-03T02:14:12.946Z,0.00
2019-05-03T02:15:12.958Z,0.00
2019-05-03T02:16:12.924Z,0.00
2019-05-03T02:17:12.941Z,0.00
2019-05-03T02:18:14.976Z,0.00
2019-05-03T02:19:12.887Z,0.00
2019-05-03T02:20:12.877Z,0.00
2019-05-03T02:21:12.886Z,0.00
2019-05-03T02:22:12.852Z,0.00
2019-05-03T02:23:12.842Z,0.00
2019-05-03T02:24:12.832Z,0.00
2019-05-03T02:25:12.827Z,0.00
2019-05-03T02:26:12.824Z,0.00
2019-05-03T02:27:12.873Z,0.00
2019-05-03T02:28:12.783Z,0.00
2019-05-03T02:29:12.773Z,0.00
2019-05-03T02:30:14.258Z,0.00
2019-05-03T02:31:13.644Z,0.00
2019-05-03T02:32:13.390Z,0.00
2019-05-03T02:33:13.623Z,0.00
2019-05-03T02:34:12.755Z,0.00
2019-05-03T02:35:14.009Z,0.00
2019-05-03T02:36:13.570Z,0.00
2019-05-03T02:37:13.849Z,0.00
2019-05-03T02:38:13.195Z,0.00
2019-05-03T02:39:13.612Z,0.00
2019-05-03T02:40:13.091Z,0.00
2019-05-03T02:41:13.483Z,0.00
2019-05-03T02:42:15.826Z,0.00
2019-05-03T02:43:12.606Z,0.00
2019-05-03T02:44:15.473Z,0.00
2019-05-03T02:45:15.312Z,0.00
2019-05-03T02:46:12.597Z,0.00
2019-05-03T02:47:12.561Z,0.00
2019-05-03T02:48:12.550Z,0.00
2019-05-03T02:49:15.209Z,0.00
2019-05-03T02:50:12.528Z,0.00
2019-05-03T02:51:15.429Z,0.00
2019-05-03T02:52:15.016Z,0.00
2019-05-03T02:53:12.492Z,0.00
2019-05-03T02:54:12.483Z,0.00
2019-05-03T02:55:15.680Z,0.00
2019-05-03T02:56:21.058Z,0.00
2019-05-03T02:57:15.037Z,0.00
2019-05-03T02:58:12.434Z,0.00
2019-05-03T02:59:15.459Z,0.00
2019-05-03T03:00:12.413Z,0.00
2019-05-03T03:01:12.400Z,0.00
2019-05-03T03:02:15.070Z,0.00
2019-05-03T03:03:16.007Z,0.00
2019-05-03T03:04:12.365Z,0.00
2019-05-03T03:05:12.350Z,0.00
2019-05-03T03:06:12.339Z,0.00
2019-05-03T03:07:15.015Z,0.00
2019-05-03T03:08:12.339Z,0.00
2019-05-03T03:09:12.310Z,0.00
2019-05-03T03:10:12.305Z,0.00
2019-05-03T03:11:12.294Z,0.00
2019-05-03T03:12:15.115Z,0.00
2019-05-03T03:13:12.278Z,0.00
2019-05-03T03:14:12.249Z,0.00
2019-05-03T03:15:12.234Z,0.00
2019-05-03T03:16:12.226Z,0.00
2019-05-03T03:17:12.211Z,0.00
2019-05-03T03:18:12.222Z,0.00
2019-05-03T03:19:12.191Z,0.00
2019-05-03T03:20:12.175Z,0.00
2019-05-03T03:21:12.165Z,0.00
2019-05-03T03:22:12.154Z,0.00
2019-05-03T03:23:17.313Z,0.00
2019-05-03T03:24:13.141Z,0.00
2019-05-03T03:25:12.122Z,0.00
2019-05-03T03:26:12.107Z,0.00
2019-05-03T03:27:12.103Z,0.00
2019-05-03T03:28:12.103Z,0.00
2019-05-03T03:29:12.073Z,0.00
2019-05-03T03:30:12.061Z,0.00
2019-05-03T03:31:12.052Z,0.00
2019-05-03T03:32:12.039Z,0.00
2019-05-03T03:33:12.052Z,0.00
2019-05-03T03:34:12.014Z,0.00
2019-05-03T03:35:13.216Z,0.00
2019-05-03T03:36:42.211Z,0.00
2019-05-03T03:37:15.379Z,0.00
2019-05-03T03:38:11.969Z,0.00
2019-05-03T03:39:11.973Z,0.00
2019-05-03T03:40:11.946Z,0.00
2019-05-03T03:41:11.932Z,0.00
2019-05-03T03:42:11.922Z,0.00
2019-05-03T03:43:11.912Z,0.00
2019-05-03T03:44:11.915Z,0.00
2019-05-03T03:45:11.889Z,0.00
2019-05-03T03:46:11.876Z,0.00
2019-05-03T03:47:11.861Z,0.00
2019-05-03T03:48:11.853Z,0.00
2019-05-03T03:49:11.857Z,0.00
2019-05-03T03:50:11.830Z,0.00
2019-05-03T03:51:11.821Z,0.00
2019-05-03T03:52:11.803Z,0.00
2019-05-03T03:53:11.797Z,0.00
2019-05-03T03:54:11.822Z,0.00
2019-05-03T03:55:11.772Z,0.00
2019-05-03T03:56:11.759Z,0.00
2019-05-03T03:57:11.745Z,0.00
2019-05-03T03:58:11.733Z,0.00
2019-05-03T03:59:18.777Z,0.00
2019-05-03T04:00:11.715Z,0.00
2019-05-03T04:01:11.700Z,0.00
2019-05-03T04:02:11.695Z,0.00
2019-05-03T04:03:11.679Z,0.00
2019-05-03T04:04:11.667Z,0.00
2019-05-03T04:05:11.673Z,0.00
2019-05-03T04:06:11.645Z,0.00
2019-05-03T04:07:11.636Z,0.00
2019-05-03T04:08:11.616Z,0.00
2019-05-03T04:09:11.606Z,0.00
2019-05-03T04:10:11.614Z,0.00
2019-05-03T04:11:11.583Z,0.00
2019-05-03T04:12:11.574Z,0.00
2019-05-03T04:13:11.559Z,0.00
2019-05-03T04:14:11.549Z,5.62
2019-05-03T04:15:11.555Z,5.62
2019-05-03T04:16:11.525Z,5.62
2019-05-03T04:17:11.514Z,5.62
2019-05-03T04:18:11.508Z,5.62
2019-05-03T04:19:11.493Z,5.62
2019-05-03T04:20:11.498Z,5.62
2019-05-03T04:21:11.468Z,5.62
2019-05-03T04:22:11.456Z,5.62
2019-05-03T04:23:11.446Z,5.62
2019-05-03T04:24:11.431Z,11.25
2019-05-03T04:25:11.422Z,16.88
2019-05-03T04:26:11.429Z,16.88
2019-05-03T04:27:22.273Z,16.88
2019-05-03T04:28:12.386Z,22.50
2019-05-03T04:29:11.373Z,22.50
2019-05-03T04:30:11.367Z,22.50
2019-05-03T04:31:11.373Z,28.12
2019-05-03T04:32:11.340Z,28.12
2019-05-03T04:33:11.333Z,33.75
2019-05-03T04:34:11.315Z,33.75
2019-05-03T04:35:11.305Z,33.75
2019-05-03T04:36:11.314Z,33.75
2019-05-03T04:37:11.280Z,28.12
2019-05-03T04:38:11.269Z,28.12
2019-05-03T04:39:11.259Z,28.12
2019-05-03T04:40:11.246Z,33.75
2019-05-03T04:41:11.238Z,39.38
2019-05-03T04:42:11.242Z,45.00
2019-05-03T04:43:11.211Z,45.00
2019-05-03T04:44:11.204Z,45.00
2019-05-03T04:45:11.192Z,39.38
2019-05-03T04:46:11.179Z,45.00
2019-05-03T04:47:11.184Z,50.62
2019-05-03T04:48:11.155Z,61.88
2019-05-03T04:49:11.146Z,73.12
2019-05-03T04:50:11.133Z,78.75
2019-05-03T04:51:11.120Z,90.00
2019-05-03T04:52:11.149Z,90.00
2019-05-03T04:53:11.113Z,101.25
2019-05-03T04:54:11.086Z,112.50
2019-05-03T04:55:11.075Z,123.75
2019-05-03T04:56:11.062Z,123.75
2019-05-03T04:57:11.054Z,129.38
2019-05-03T04:58:11.057Z,129.38
2019-05-03T04:59:11.035Z,129.38
2019-05-03T05:00:11.799Z,135.00
2019-05-03T05:01:11.002Z,135.00
2019-05-03T05:02:10.992Z,135.00
2019-05-03T05:03:11.001Z,135.00
2019-05-03T05:04:10.968Z,129.38
2019-05-03T05:05:10.957Z,123.75
2019-05-03T05:06:10.945Z,118.12
2019-05-03T05:07:10.935Z,118.12
2019-05-03T05:08:10.941Z,123.75
2019-05-03T05:09:10.915Z,106.88
2019-05-03T05:10:10.899Z,106.88
2019-05-03T05:11:10.892Z,106.88
2019-05-03T05:12:10.878Z,106.88
2019-05-03T05:13:10.884Z,106.88
2019-05-03T05:14:10.851Z,112.50
2019-05-03T05:15:10.840Z,123.75
2019-05-03T05:16:10.830Z,129.38
2019-05-03T05:17:10.817Z,135.00
2019-05-03T05:18:10.830Z,140.62
2019-05-03T05:19:10.792Z,140.62
2019-05-03T05:20:10.784Z,135.00
2019-05-03T05:21:10.780Z,129.38
2019-05-03T05:22:10.775Z,112.50
2019-05-03T05:23:10.771Z,101.25
2019-05-03T05:24:10.734Z,106.88
2019-05-03T05:25:10.727Z,106.88
2019-05-03T05:26:10.714Z,112.50
2019-05-03T05:27:10.699Z,118.12
2019-05-03T05:28:10.690Z,129.38
2019-05-03T05:29:10.694Z,140.62
2019-05-03T05:30:10.715Z,146.25
2019-05-03T05:31:10.652Z,157.50
2019-05-03T05:32:10.642Z,163.12
2019-05-03T05:33:10.630Z,174.38
2019-05-03T05:34:10.638Z,185.62
2019-05-03T05:35:10.606Z,191.25
2019-05-03T05:36:10.598Z,185.62
2019-05-03T05:37:10.582Z,168.75
2019-05-03T05:38:10.571Z,174.38
2019-05-03T05:39:10.581Z,185.62
2019-05-03T05:40:10.548Z,191.25
2019-05-03T05:41:10.540Z,196.88
2019-05-03T05:42:10.525Z,225.00
2019-05-03T05:43:10.513Z,241.88
2019-05-03T05:44:10.535Z,225.00
2019-05-03T05:45:10.492Z,196.88
2019-05-03T05:46:10.477Z,174.38
2019-05-03T05:47:10.466Z,174.38
2019-05-03T05:48:10.457Z,180.00
2019-05-03T05:49:10.465Z,163.12
2019-05-03T05:50:10.434Z,163.12
2019-05-03T05:51:13.410Z,157.50
2019-05-03T05:52:10.408Z,163.12
2019-05-03T05:53:10.398Z,174.38
2019-05-03T05:54:10.408Z,196.88
2019-05-03T05:55:10.376Z,202.50
2019-05-03T05:56:10.361Z,196.88
2019-05-03T05:57:10.352Z,202.50
2019-05-03T05:58:10.341Z,208.12
2019-05-03T05:59:10.368Z,213.75
2019-05-03T06:00:10.326Z,219.38
2019-05-03T06:01:10.303Z,236.25
2019-05-03T06:02:10.296Z,247.50
2019-05-03T06:03:10.282Z,253.12
2019-05-03T06:04:10.286Z,264.38
2019-05-03T06:05:10.258Z,275.62
2019-05-03T06:06:10.247Z,286.88
2019-05-03T06:07:10.233Z,303.75
2019-05-03T06:08:10.229Z,326.25
2019-05-03T06:09:10.234Z,348.75
2019-05-03T06:10:10.199Z,376.88
2019-05-03T06:11:10.191Z,399.38
2019-05-03T06:12:10.180Z,388.12
2019-05-03T06:13:10.174Z,354.38
2019-05-03T06:14:10.156Z,343.12
2019-05-03T06:15:10.166Z,354.38
2019-05-03T06:16:10.137Z,348.75
2019-05-03T06:17:10.121Z,343.12
2019-05-03T06:18:10.129Z,343.12
2019-05-03T06:19:10.098Z,343.12
2019-05-03T06:20:10.106Z,371.25
2019-05-03T06:21:10.077Z,405.00
2019-05-03T06:22:10.065Z,405.00
2019-05-03T06:23:10.055Z,416.25
2019-05-03T06:24:10.042Z,421.88
2019-05-03T06:25:10.050Z,427.50
2019-05-03T06:26:10.022Z,416.25
2019-05-03T06:27:10.010Z,405.00
2019-05-03T06:28:19.951Z,427.50
2019-05-03T06:29:10.984Z,466.88
2019-05-03T06:30:09.999Z,495.00
2019-05-03T06:31:09.964Z,551.25
2019-05-03T06:32:09.953Z,562.50
2019-05-03T06:33:09.951Z,669.38
2019-05-03T06:34:09.931Z,686.25
2019-05-03T06:35:09.917Z,753.75
2019-05-03T06:36:09.925Z,725.62
2019-05-03T06:37:09.909Z,826.88
2019-05-03T06:38:09.883Z,1215.00
2019-05-03T06:39:09.873Z,1057.50
2019-05-03T06:40:09.860Z,888.75
2019-05-03T06:41:09.867Z,860.62
2019-05-03T06:42:14.508Z,1327.50
2019-05-03T06:43:12.875Z,652.50
2019-05-03T06:44:09.814Z,607.50
2019-05-03T06:45:11.671Z,753.75
2019-05-03T06:46:09.807Z,523.12
2019-05-03T06:47:10.527Z,540.00
2019-05-03T06:48:09.766Z,545.62
2019-05-03T06:49:10.103Z,624.38
2019-05-03T06:50:09.744Z,770.62
2019-05-03T06:51:12.566Z,669.38
2019-05-03T06:52:10.746Z,669.38
2019-05-03T06:53:12.863Z,781.88
2019-05-03T06:54:09.698Z,753.75
2019-05-03T06:55:10.867Z,781.88
2019-05-03T06:56:09.675Z,703.12
2019-05-03T06:57:09.869Z,641.25
2019-05-03T06:58:09.653Z,596.25
2019-05-03T06:59:09.642Z,585.00
2019-05-03T07:00:09.627Z,596.25
2019-05-03T07:01:11.312Z,669.38
2019-05-03T07:02:09.627Z,1316.25
2019-05-03T07:03:09.593Z,961.88
2019-05-03T07:04:09.582Z,2705.62
2019-05-03T07:05:09.572Z,1175.62
2019-05-03T07:06:09.561Z,669.38
2019-05-03T07:07:09.570Z,585.00
2019-05-03T07:08:09.537Z,551.25
2019-05-03T07:09:09.527Z,540.00
2019-05-03T07:10:09.515Z,528.75
2019-05-03T07:11:09.501Z,495.00
2019-05-03T07:12:09.492Z,433.12
2019-05-03T07:13:09.497Z,371.25
2019-05-03T07:14:09.466Z,326.25
2019-05-03T07:15:09.455Z,275.62
2019-05-03T07:16:09.444Z,270.00
2019-05-03T07:17:09.433Z,320.62
2019-05-03T07:18:09.440Z,393.75
2019-05-03T07:19:09.406Z,438.75
2019-05-03T07:20:09.398Z,444.38
2019-05-03T07:21:09.386Z,466.88
2019-05-03T07:22:09.387Z,534.38
2019-05-03T07:23:09.381Z,568.12
2019-05-03T07:24:09.357Z,596.25
2019-05-03T07:25:09.339Z,607.50
2019-05-03T07:26:09.326Z,540.00
2019-05-03T07:27:09.317Z,540.00
2019-05-03T07:28:09.324Z,579.38
2019-05-03T07:29:09.301Z,652.50
2019-05-03T07:30:09.282Z,708.75
2019-05-03T07:31:09.270Z,793.12
2019-05-03T07:32:09.258Z,753.75
2019-05-03T07:33:09.268Z,753.75
2019-05-03T07:34:09.237Z,798.75
2019-05-03T07:35:09.225Z,877.50
2019-05-03T07:36:09.215Z,860.62
2019-05-03T07:37:09.203Z,1046.25
2019-05-03T07:38:09.207Z,1265.62
2019-05-03T07:39:09.181Z,2148.75
2019-05-03T07:40:09.167Z,2362.50
2019-05-03T07:41:09.156Z,2503.12
2019-05-03T07:42:09.144Z,2193.75
2019-05-03T07:43:09.149Z,551.25
2019-05-03T07:44:09.121Z,511.88
2019-05-03T07:45:09.110Z,573.75
2019-05-03T07:46:09.099Z,630.00
2019-05-03T07:47:09.087Z,680.62
2019-05-03T07:48:09.100Z,815.62
2019-05-03T07:49:09.069Z,838.12
2019-05-03T07:50:09.056Z,821.25
2019-05-03T07:51:09.043Z,933.75
2019-05-03T07:52:11.756Z,1530.00
2019-05-03T07:53:09.018Z,2553.75
2019-05-03T07:54:09.027Z,1237.50
2019-05-03T07:55:09.003Z,1040.62
2019-05-03T07:56:08.989Z,1035.00
2019-05-03T07:57:08.974Z,1029.38
2019-05-03T07:58:08.960Z,978.75
2019-05-03T07:59:08.968Z,961.88
2019-05-03T08:00:08.937Z,1805.62
2019-05-03T08:01:10.130Z,933.75
2019-05-03T08:02:08.914Z,967.50
2019-05-03T08:03:08.903Z,1012.50
2019-05-03T08:04:08.925Z,1755.00
2019-05-03T08:05:08.880Z,1113.75
2019-05-03T08:06:08.865Z,933.75
2019-05-03T08:07:19.945Z,855.00
2019-05-03T08:08:09.847Z,798.75
2019-05-03T08:09:08.851Z,765.00
2019-05-03T08:10:08.825Z,787.50
2019-05-03T08:11:08.808Z,815.62
2019-05-03T08:12:08.797Z,832.50
2019-05-03T08:13:08.787Z,855.00
2019-05-03T08:14:08.794Z,894.38
2019-05-03T08:15:08.762Z,973.12
2019-05-03T08:16:08.753Z,1074.38
2019-05-03T08:17:08.738Z,1153.12
2019-05-03T08:18:08.728Z,1091.25
2019-05-03T08:19:08.739Z,1125.00
2019-05-03T08:20:08.707Z,1546.88
2019-05-03T08:21:08.697Z,961.88
2019-05-03T08:22:08.681Z,933.75
2019-05-03T08:23:08.673Z,905.62
2019-05-03T08:24:08.678Z,922.50
2019-05-03T08:25:08.647Z,2694.38
2019-05-03T08:26:08.638Z,1085.62
2019-05-03T08:27:08.624Z,1141.88
2019-05-03T08:28:08.612Z,1096.88
2019-05-03T08:29:16.080Z,1946.25
2019-05-03T08:30:09.590Z,1141.88
2019-05-03T08:31:08.577Z,3043.12
2019-05-03T08:32:08.568Z,3262.50
2019-05-03T08:33:08.553Z,2840.62
2019-05-03T08:34:08.561Z,3341.25
2019-05-03T08:35:08.533Z,3256.88
2019-05-03T08:36:08.520Z,1456.88
2019-05-03T08:37:08.511Z,1361.25
2019-05-03T08:38:08.499Z,1231.88
2019-05-03T08:39:08.514Z,911.25
2019-05-03T08:40:08.475Z,843.75
2019-05-03T08:41:08.463Z,776.25
2019-05-03T08:42:08.455Z,776.25
2019-05-03T08:43:08.443Z,720.00
2019-05-03T08:44:08.430Z,624.38
2019-05-03T08:45:08.466Z,562.50
2019-05-03T08:46:08.406Z,517.50
2019-05-03T08:47:08.397Z,466.88
2019-05-03T08:48:08.390Z,416.25
2019-05-03T08:49:08.371Z,376.88
2019-05-03T08:50:08.378Z,343.12
2019-05-03T08:51:08.349Z,343.12
2019-05-03T08:52:08.338Z,354.38
2019-05-03T08:53:08.329Z,382.50
2019-05-03T08:54:08.315Z,421.88
2019-05-03T08:55:08.321Z,466.88
2019-05-03T08:56:08.293Z,523.12
2019-05-03T08:57:08.278Z,596.25
2019-05-03T08:58:08.311Z,675.00
2019-05-03T08:59:08.258Z,759.38
2019-05-03T09:00:08.263Z,860.62
2019-05-03T09:01:08.232Z,967.50
2019-05-03T09:02:17.422Z,1186.88
2019-05-03T09:03:09.210Z,1119.38
2019-05-03T09:04:08.200Z,1811.25
2019-05-03T09:05:08.206Z,2565.00
2019-05-03T09:06:08.174Z,2655.00
2019-05-03T09:07:08.163Z,3318.75
2019-05-03T09:08:08.155Z,4145.62
2019-05-03T09:09:08.140Z,3960.00
2019-05-03T09:10:12.341Z,3808.12
2019-05-03T09:11:09.119Z,3571.88
2019-05-03T09:12:08.109Z,3588.75
2019-05-03T09:13:08.099Z,3375.00
2019-05-03T09:14:08.083Z,3369.38
2019-05-03T09:15:08.095Z,3459.38
2019-05-03T09:16:08.133Z,1861.88
2019-05-03T09:17:08.050Z,3465.00
2019-05-03T09:18:08.040Z,3695.62
2019-05-03T09:19:08.032Z,1445.62
2019-05-03T09:20:08.015Z,3650.62
2019-05-03T09:21:08.023Z,2801.25
2019-05-03T09:22:07.997Z,1113.75
2019-05-03T09:23:07.983Z,1001.25
2019-05-03T09:24:07.971Z,900.00
2019-05-03T09:25:07.965Z,793.12
2019-05-03T09:26:07.967Z,686.25
2019-05-03T09:27:07.944Z,601.88
2019-05-03T09:28:07.925Z,534.38
2019-05-03T09:29:07.913Z,483.75
2019-05-03T09:30:07.903Z,478.12
2019-05-03T09:31:07.910Z,466.88
2019-05-03T09:32:07.881Z,466.88
2019-05-03T09:33:09.143Z,478.12
2019-05-03T09:34:08.384Z,478.12
2019-05-03T09:35:07.848Z,483.75
2019-05-03T09:36:07.861Z,483.75
2019-05-03T09:37:07.823Z,472.50
2019-05-03T09:38:07.813Z,450.00
2019-05-03T09:39:07.800Z,427.50
2019-05-03T09:40:07.788Z,410.62
2019-05-03T09:41:07.802Z,427.50
2019-05-03T09:42:07.765Z,461.25
2019-05-03T09:43:07.755Z,551.25
2019-05-03T09:44:07.742Z,663.75
2019-05-03T09:45:07.732Z,776.25
2019-05-03T09:46:07.720Z,978.75
2019-05-03T09:47:07.727Z,1417.50
2019-05-03T09:48:07.696Z,3453.75
2019-05-03T09:49:13.200Z,4303.12
2019-05-03T09:50:08.674Z,1715.62
2019-05-03T09:51:07.662Z,4044.38
2019-05-03T09:52:08.616Z,2002.50
2019-05-03T09:53:09.098Z,984.38
2019-05-03T09:54:07.629Z,860.62
2019-05-03T09:55:07.617Z,871.88
2019-05-03T09:56:07.608Z,950.62
2019-05-03T09:57:07.616Z,1080.00
2019-05-03T09:58:07.585Z,3268.12
2019-05-03T10:00:00.065Z,2115.00
2019-05-03T10:00:57.125Z,2199.38
2019-05-03T10:01:57.109Z,3453.75
2019-05-03T10:02:57.134Z,3082.50
2019-05-03T10:03:57.091Z,1850.62
2019-05-03T10:04:57.077Z,3538.12
2019-05-03T10:05:57.066Z,1636.88
2019-05-03T10:06:57.058Z,1794.38
2019-05-03T10:07:57.065Z,1535.62
2019-05-03T10:08:57.035Z,1350.00
2019-05-03T10:09:57.020Z,2221.88
2019-05-03T10:10:57.021Z,3594.38
2019-05-03T10:11:57.000Z,3526.88
2019-05-03T10:12:57.022Z,2638.12
2019-05-03T10:13:56.974Z,3183.75
2019-05-03T10:14:56.964Z,3594.38
2019-05-03T10:15:56.961Z,3881.25
2019-05-03T10:16:56.942Z,4471.88
2019-05-03T10:17:56.972Z,4573.12
2019-05-03T10:18:56.919Z,4438.12
2019-05-03T10:19:56.908Z,3909.38
2019-05-03T10:20:56.898Z,1940.62
2019-05-03T10:21:56.886Z,1980.00
2019-05-03T10:22:56.874Z,4426.88
2019-05-03T10:23:56.883Z,4623.75
2019-05-03T10:24:56.854Z,1350.00
2019-05-03T10:25:56.843Z,1018.12
2019-05-03T10:26:56.829Z,956.25
2019-05-03T10:27:56.821Z,978.75
2019-05-03T10:28:56.827Z,1141.88
2019-05-03T10:30:09.652Z,945.00
2019-05-03T10:30:57.784Z,922.50
2019-05-03T10:31:56.773Z,933.75
2019-05-03T10:32:56.760Z,1108.12
2019-05-03T10:33:56.769Z,3397.50
2019-05-03T10:34:56.736Z,2902.50
2019-05-03T10:35:56.727Z,1080.00
2019-05-03T10:36:56.715Z,1040.62
2019-05-03T10:37:56.707Z,871.88
2019-05-03T10:38:56.719Z,916.88
2019-05-03T10:39:56.683Z,990.00
2019-05-03T10:40:56.673Z,1192.50
2019-05-03T10:41:56.661Z,1546.88
2019-05-03T10:42:56.648Z,1141.88
2019-05-03T10:43:56.660Z,1063.12
2019-05-03T10:44:56.626Z,1068.75
2019-05-03T10:45:56.612Z,1096.88
2019-05-03T10:46:56.602Z,1085.62
2019-05-03T10:47:56.589Z,1057.50
2019-05-03T10:48:56.597Z,1029.38
2019-05-03T10:49:56.570Z,967.50
2019-05-03T10:50:56.631Z,843.75
2019-05-03T10:51:56.545Z,759.38
2019-05-03T10:52:56.537Z,714.38
2019-05-03T10:53:56.543Z,680.62
2019-05-03T10:54:56.510Z,675.00
2019-05-03T10:55:56.500Z,703.12
2019-05-03T10:56:56.510Z,742.50
2019-05-03T10:57:56.475Z,815.62
2019-05-03T10:58:56.487Z,961.88
2019-05-03T10:59:56.450Z,933.75
2019-05-03T11:00:56.816Z,1085.62
2019-05-03T11:01:56.428Z,1361.25
2019-05-03T11:02:56.415Z,1018.12
2019-05-03T11:03:56.405Z,1597.50
2019-05-03T11:04:56.413Z,1260.00
2019-05-03T11:05:56.379Z,1552.50
2019-05-03T11:06:56.368Z,2205.00
2019-05-03T11:07:56.357Z,3161.25
2019-05-03T11:08:56.344Z,3065.62
2019-05-03T11:09:56.360Z,2176.88
2019-05-03T11:10:56.326Z,1400.62
2019-05-03T11:11:56.314Z,1215.00
2019-05-03T11:12:56.302Z,1108.12
2019-05-03T11:13:56.289Z,1018.12
2019-05-03T11:14:56.296Z,933.75
2019-05-03T11:15:56.266Z,843.75
2019-05-03T11:16:56.256Z,832.50
2019-05-03T11:17:56.245Z,928.12
2019-05-03T11:18:56.234Z,2503.12
2019-05-03T11:19:56.240Z,2868.75
2019-05-03T11:20:56.211Z,2863.12
2019-05-03T11:21:56.198Z,3015.00
2019-05-03T11:22:56.185Z,1878.75
2019-05-03T11:23:56.176Z,1642.50
2019-05-03T11:24:56.188Z,3279.38
2019-05-03T11:25:56.157Z,2660.62
2019-05-03T11:26:56.143Z,3386.25
2019-05-03T11:27:56.138Z,3611.25
2019-05-03T11:29:00.408Z,1755.00
2019-05-03T11:29:59.029Z,4061.25
2019-05-03T11:31:01.924Z,4061.25
2019-05-03T11:31:57.082Z,3504.38
2019-05-03T11:32:56.074Z,2036.25
2019-05-03T11:33:56.064Z,2356.88
2019-05-03T11:34:56.072Z,1096.88
2019-05-03T11:35:56.040Z,1057.50
2019-05-03T11:36:56.031Z,961.88
2019-05-03T11:37:56.019Z,871.88
2019-05-03T11:38:56.010Z,759.38
2019-05-03T11:39:56.037Z,675.00
2019-05-03T11:40:56.185Z,630.00
2019-05-03T11:41:55.971Z,573.75
2019-05-03T11:42:55.965Z,551.25
2019-05-03T11:43:55.950Z,590.62
2019-05-03T11:44:55.936Z,686.25
2019-05-03T11:45:55.944Z,815.62
2019-05-03T11:46:55.918Z,900.00
2019-05-03T11:47:55.902Z,978.75
2019-05-03T11:48:55.893Z,1198.12
2019-05-03T11:49:55.880Z,1338.75
2019-05-03T11:50:55.887Z,1479.38
2019-05-03T11:51:55.857Z,2030.62
2019-05-03T11:52:55.846Z,1676.25
2019-05-03T11:53:55.834Z,2008.12
2019-05-03T11:54:55.824Z,1485.00
2019-05-03T11:55:55.832Z,1524.38
2019-05-03T11:56:55.802Z,1766.25
2019-05-03T11:57:56.627Z,3656.25
2019-05-03T11:58:55.777Z,3442.50
2019-05-03T11:59:55.766Z,3290.62
2019-05-03T12:01:10.857Z,3031.88
2019-05-03T12:01:56.742Z,2970.00
2019-05-03T12:02:55.738Z,2874.38
2019-05-03T12:03:55.725Z,2835.00
2019-05-03T12:04:55.709Z,2317.50
2019-05-03T12:05:55.741Z,2143.12
2019-05-03T12:06:55.686Z,2418.75
2019-05-03T12:07:55.681Z,1811.25
2019-05-03T12:08:55.664Z,2266.88
2019-05-03T12:09:55.694Z,1485.00
2019-05-03T12:11:01.151Z,2013.75
2019-05-03T12:11:56.645Z,4685.62
2019-05-03T12:12:55.623Z,1918.12
2019-05-03T12:14:03.870Z,1693.12
2019-05-03T12:14:56.594Z,2030.62
2019-05-03T12:15:55.582Z,1777.50
2019-05-03T12:17:16.164Z,2300.62
2019-05-03T12:17:59.006Z,1243.12
2019-05-03T12:18:55.939Z,1001.25
2019-05-03T12:19:57.448Z,860.62
2019-05-03T12:20:57.043Z,770.62
2019-05-03T12:21:56.046Z,826.88
2019-05-03T12:22:56.096Z,697.50
2019-05-03T12:23:56.541Z,635.62
2019-05-03T12:24:56.051Z,618.75
2019-05-03T12:25:56.132Z,590.62
2019-05-03T12:26:55.858Z,613.12
2019-05-03T12:27:55.449Z,652.50
2019-05-03T12:28:55.433Z,753.75
2019-05-03T12:29:55.422Z,815.62
2019-05-03T12:30:55.413Z,928.12
2019-05-03T12:31:55.399Z,1181.25
2019-05-03T12:32:55.414Z,2632.50
2019-05-03T12:33:55.390Z,2649.38
2019-05-03T12:34:55.368Z,3420.00
2019-05-03T12:35:55.377Z,2413.12
2019-05-03T12:36:55.344Z,2047.50
2019-05-03T12:37:55.704Z,4488.75
2019-05-03T12:38:55.323Z,4640.62
2019-05-03T12:39:55.309Z,4016.25
2019-05-03T12:40:55.296Z,1501.88